sensor_id;sensor_type;location;lat;lon;timestamp;temperature;humidity
52107;DHT22;38105;52.968;5.974;2023-05-07T00:01:25;13.90;99.90
52107;DHT22;38105;52.968;5.974;2023-05-07T00:03:51;14.00;99.90
52107;DHT22;38105;52.968;5.974;2023-05-07T00:06:17;13.60;99.90
52107;DHT22;38105;52.968;5.974;2023-05-07T00:08:42;13.90;99.90
52107;DHT22;38105;52.968;5.974;2023-05-07T00:11:08;13.90;99.90
52107;DHT22;38105;52.968;5.974;2023-05-07T00:13:33;13.90;99.90
52107;DHT22;38105;52.968;5.974;2023-05-07T00:16:02;13.90;99.90
52107;DHT22;38105;52.968;5.974;2023-05-07T00:18:28;13.80;99.90
52107;DHT22;38105;52.968;5.974;2023-05-07T00:20:53;13.60;99.90
52107;DHT22;38105;52.968;5.974;2023-05-07T00:23:19;13.80;99.90
52107;DHT22;38105;52.968;5.974;2023-05-07T00:25:44;13.90;99.90
52107;DHT22;38105;52.968;5.974;2023-05-07T00:28:10;13.40;99.90
52107;DHT22;38105;52.968;5.974;2023-05-07T00:30:36;13.90;99.90
52107;DHT22;38105;52.968;5.974;2023-05-07T00:33:01;13.90;99.90
52107;DHT22;38105;52.968;5.974;2023-05-07T00:35:28;13.40;99.90
52107;DHT22;38105;52.968;5.974;2023-05-07T00:37:54;13.40;99.90
52107;DHT22;38105;52.968;5.974;2023-05-07T00:40:20;13.30;99.90
52107;DHT22;38105;52.968;5.974;2023-05-07T00:42:46;13.80;99.90
52107;DHT22;38105;52.968;5.974;2023-05-07T00:45:13;13.60;99.90
52107;DHT22;38105;52.968;5.974;2023-05-07T00:47:40;13.80;99.90
52107;DHT22;38105;52.968;5.974;2023-05-07T00:50:06;13.80;99.90
52107;DHT22;38105;52.968;5.974;2023-05-07T00:52:32;13.40;99.90
52107;DHT22;38105;52.968;5.974;2023-05-07T00:55:01;13.20;99.90
52107;DHT22;38105;52.968;5.974;2023-05-07T00:57:29;13.50;99.90
52107;DHT22;38105;52.968;5.974;2023-05-07T00:59:57;13.60;99.90
52107;DHT22;38105;52.968;5.974;2023-05-07T01:02:23;13.40;99.90
52107;DHT22;38105;52.968;5.974;2023-05-07T01:04:49;13.10;99.90
52107;DHT22;38105;52.968;5.974;2023-05-07T01:07:14;13.50;99.90
52107;DHT22;38105;52.968;5.974;2023-05-07T01:09:40;13.50;99.90
52107;DHT22;38105;52.968;5.974;2023-05-07T01:12:07;13.20;99.90
52107;DHT22;38105;52.968;5.974;2023-05-07T01:14:33;13.60;99.90
52107;DHT22;38105;52.968;5.974;2023-05-07T01:16:59;13.60;99.90
52107;DHT22;38105;52.968;5.974;2023-05-07T01:19:24;13.40;99.90
52107;DHT22;38105;52.968;5.974;2023-05-07T01:21:51;13.30;99.90
52107;DHT22;38105;52.968;5.974;2023-05-07T01:24:18;13.40;99.90
52107;DHT22;38105;52.968;5.974;2023-05-07T01:26:44;13.40;99.90
52107;DHT22;38105;52.968;5.974;2023-05-07T01:29:10;13.00;99.90
52107;DHT22;38105;52.968;5.974;2023-05-07T01:31:37;13.00;99.90
52107;DHT22;38105;52.968;5.974;2023-05-07T01:34:03;13.40;99.90
52107;DHT22;38105;52.968;5.974;2023-05-07T01:36:31;13.20;99.90
52107;DHT22;38105;52.968;5.974;2023-05-07T01:38:59;13.10;99.90
52107;DHT22;38105;52.968;5.974;2023-05-07T01:41:25;13.50;99.90
52107;DHT22;38105;52.968;5.974;2023-05-07T01:43:52;13.10;99.90
52107;DHT22;38105;52.968;5.974;2023-05-07T01:46:18;13.50;99.90
52107;DHT22;38105;52.968;5.974;2023-05-07T01:48:45;13.50;99.90
52107;DHT22;38105;52.968;5.974;2023-05-07T01:51:11;13.50;99.90
52107;DHT22;38105;52.968;5.974;2023-05-07T01:53:40;13.50;99.90
52107;DHT22;38105;52.968;5.974;2023-05-07T01:56:07;13.20;99.90
52107;DHT22;38105;52.968;5.974;2023-05-07T01:58:33;13.40;99.90
52107;DHT22;38105;52.968;5.974;2023-05-07T02:00:59;13.00;99.90
52107;DHT22;38105;52.968;5.974;2023-05-07T02:03:25;13.40;99.90
52107;DHT22;38105;52.968;5.974;2023-05-07T02:05:51;13.30;99.90
52107;DHT22;38105;52.968;5.974;2023-05-07T02:08:16;13.40;99.90
52107;DHT22;38105;52.968;5.974;2023-05-07T02:10:42;12.80;99.90
52107;DHT22;38105;52.968;5.974;2023-05-07T02:13:08;13.30;99.90
52107;DHT22;38105;52.968;5.974;2023-05-07T02:15:33;12.70;99.90
52107;DHT22;38105;52.968;5.974;2023-05-07T02:18:08;13.30;99.90
52107;DHT22;38105;52.968;5.974;2023-05-07T02:20:34;12.70;99.90
52107;DHT22;38105;52.968;5.974;2023-05-07T02:23:00;13.20;99.90
52107;DHT22;38105;52.968;5.974;2023-05-07T02:25:26;12.70;99.90
52107;DHT22;38105;52.968;5.974;2023-05-07T02:27:51;13.20;99.90
52107;DHT22;38105;52.968;5.974;2023-05-07T02:30:17;13.10;99.90
52107;DHT22;38105;52.968;5.974;2023-05-07T02:32:43;13.10;99.90
52107;DHT22;38105;52.968;5.974;2023-05-07T02:35:10;13.00;99.90
52107;DHT22;38105;52.968;5.974;2023-05-07T02:37:35;12.90;99.90
52107;DHT22;38105;52.968;5.974;2023-05-07T02:40:01;12.90;99.90
52107;DHT22;38105;52.968;5.974;2023-05-07T02:42:29;12.50;99.90
52107;DHT22;38105;52.968;5.974;2023-05-07T02:44:55;12.70;99.90
52107;DHT22;38105;52.968;5.974;2023-05-07T02:47:20;12.40;99.90
52107;DHT22;38105;52.968;5.974;2023-05-07T02:49:46;12.40;99.90
52107;DHT22;38105;52.968;5.974;2023-05-07T02:52:11;12.40;99.90
52107;DHT22;38105;52.968;5.974;2023-05-07T02:54:37;12.30;99.90
52107;DHT22;38105;52.968;5.974;2023-05-07T02:57:03;12.70;99.90
52107;DHT22;38105;52.968;5.974;2023-05-07T02:59:28;12.20;99.90
52107;DHT22;38105;52.968;5.974;2023-05-07T03:01:54;12.60;99.90
52107;DHT22;38105;52.968;5.974;2023-05-07T03:04:19;12.60;99.90
52107;DHT22;38105;52.968;5.974;2023-05-07T03:06:45;12.50;99.90
52107;DHT22;38105;52.968;5.974;2023-05-07T03:09:11;12.50;99.90
52107;DHT22;38105;52.968;5.974;2023-05-07T03:11:37;12.60;99.90
52107;DHT22;38105;52.968;5.974;2023-05-07T03:14:03;12.60;99.90
52107;DHT22;38105;52.968;5.974;2023-05-07T03:16:28;12.20;99.90
52107;DHT22;38105;52.968;5.974;2023-05-07T03:18:54;12.10;99.90
52107;DHT22;38105;52.968;5.974;2023-05-07T03:21:19;12.20;99.90
52107;DHT22;38105;52.968;5.974;2023-05-07T03:23:45;12.50;99.90
52107;DHT22;38105;52.968;5.974;2023-05-07T03:26:11;12.10;99.90
52107;DHT22;38105;52.968;5.974;2023-05-07T03:28:37;11.90;99.90
52107;DHT22;38105;52.968;5.974;2023-05-07T03:31:02;11.90;99.90
52107;DHT22;38105;52.968;5.974;2023-05-07T03:33:28;12.40;99.90
52107;DHT22;38105;52.968;5.974;2023-05-07T03:35:54;12.30;99.90
52107;DHT22;38105;52.968;5.974;2023-05-07T03:38:19;11.80;99.90
52107;DHT22;38105;52.968;5.974;2023-05-07T03:40:45;12.00;99.90
52107;DHT22;38105;52.968;5.974;2023-05-07T03:43:11;11.90;99.90
52107;DHT22;38105;52.968;5.974;2023-05-07T03:45:36;12.00;99.90
52107;DHT22;38105;52.968;5.974;2023-05-07T03:48:02;11.70;99.90
52107;DHT22;38105;52.968;5.974;2023-05-07T03:50:28;11.70;99.90
52107;DHT22;38105;52.968;5.974;2023-05-07T03:52:54;11.80;99.90
52107;DHT22;38105;52.968;5.974;2023-05-07T03:55:19;11.90;99.90
52107;DHT22;38105;52.968;5.974;2023-05-07T03:57:45;11.80;99.90
52107;DHT22;38105;52.968;5.974;2023-05-07T04:00:11;12.10;99.90
52107;DHT22;38105;52.968;5.974;2023-05-07T04:02:37;11.60;99.90
52107;DHT22;38105;52.968;5.974;2023-05-07T04:05:02;11.80;99.90
52107;DHT22;38105;52.968;5.974;2023-05-07T04:07:28;11.60;99.90
52107;DHT22;38105;52.968;5.974;2023-05-07T04:09:54;12.00;99.90
52107;DHT22;38105;52.968;5.974;2023-05-07T04:12:19;11.70;99.90
52107;DHT22;38105;52.968;5.974;2023-05-07T04:14:45;11.50;99.90
52107;DHT22;38105;52.968;5.974;2023-05-07T04:17:11;12.00;99.90
52107;DHT22;38105;52.968;5.974;2023-05-07T04:19:36;11.60;99.90
52107;DHT22;38105;52.968;5.974;2023-05-07T04:22:02;11.90;99.90
52107;DHT22;38105;52.968;5.974;2023-05-07T04:24:31;11.50;99.90
52107;DHT22;38105;52.968;5.974;2023-05-07T04:26:58;11.70;99.90
52107;DHT22;38105;52.968;5.974;2023-05-07T04:29:24;11.80;99.90
52107;DHT22;38105;52.968;5.974;2023-05-07T04:31:49;11.50;99.90
52107;DHT22;38105;52.968;5.974;2023-05-07T04:34:16;11.80;99.90
52107;DHT22;38105;52.968;5.974;2023-05-07T04:36:42;11.30;99.90
52107;DHT22;38105;52.968;5.974;2023-05-07T04:39:08;11.40;99.90
52107;DHT22;38105;52.968;5.974;2023-05-07T04:41:36;11.70;99.90
52107;DHT22;38105;52.968;5.974;2023-05-07T04:44:01;11.30;99.90
52107;DHT22;38105;52.968;5.974;2023-05-07T04:46:29;11.40;99.90
52107;DHT22;38105;52.968;5.974;2023-05-07T04:48:55;11.70;99.90
52107;DHT22;38105;52.968;5.974;2023-05-07T04:51:20;11.70;99.90
52107;DHT22;38105;52.968;5.974;2023-05-07T04:53:46;11.30;99.90
52107;DHT22;38105;52.968;5.974;2023-05-07T04:56:12;11.30;99.90
52107;DHT22;38105;52.968;5.974;2023-05-07T04:58:37;11.70;99.90
52107;DHT22;38105;52.968;5.974;2023-05-07T05:01:03;11.30;99.90
52107;DHT22;38105;52.968;5.974;2023-05-07T05:03:30;11.70;99.90
52107;DHT22;38105;52.968;5.974;2023-05-07T05:05:55;11.70;99.90
52107;DHT22;38105;52.968;5.974;2023-05-07T05:08:22;11.50;99.90
52107;DHT22;38105;52.968;5.974;2023-05-07T05:10:48;11.70;99.90
52107;DHT22;38105;52.968;5.974;2023-05-07T05:13:15;11.30;99.90
52107;DHT22;38105;52.968;5.974;2023-05-07T05:15:40;11.30;99.90
52107;DHT22;38105;52.968;5.974;2023-05-07T05:18:06;11.50;99.90
52107;DHT22;38105;52.968;5.974;2023-05-07T05:20:32;11.30;99.90
52107;DHT22;38105;52.968;5.974;2023-05-07T05:22:57;11.50;99.90
52107;DHT22;38105;52.968;5.974;2023-05-07T05:25:23;11.40;99.90
52107;DHT22;38105;52.968;5.974;2023-05-07T05:27:48;11.80;99.90
52107;DHT22;38105;52.968;5.974;2023-05-07T05:30:14;11.60;99.90
52107;DHT22;38105;52.968;5.974;2023-05-07T05:32:40;11.50;99.90
52107;DHT22;38105;52.968;5.974;2023-05-07T05:35:05;11.60;99.90
52107;DHT22;38105;52.968;5.974;2023-05-07T05:37:31;11.80;99.90
52107;DHT22;38105;52.968;5.974;2023-05-07T05:39:57;11.60;99.90
52107;DHT22;38105;52.968;5.974;2023-05-07T05:42:23;11.50;99.90
52107;DHT22;38105;52.968;5.974;2023-05-07T05:44:48;11.70;99.90
52107;DHT22;38105;52.968;5.974;2023-05-07T05:47:14;12.00;99.90
52107;DHT22;38105;52.968;5.974;2023-05-07T05:49:40;11.90;99.90
52107;DHT22;38105;52.968;5.974;2023-05-07T05:52:05;11.80;99.90
52107;DHT22;38105;52.968;5.974;2023-05-07T05:54:31;11.60;99.90
52107;DHT22;38105;52.968;5.974;2023-05-07T05:56:57;11.90;99.90
52107;DHT22;38105;52.968;5.974;2023-05-07T05:59:23;11.60;99.90
52107;DHT22;38105;52.968;5.974;2023-05-07T06:01:49;12.00;99.90
52107;DHT22;38105;52.968;5.974;2023-05-07T06:04:14;11.80;99.90
52107;DHT22;38105;52.968;5.974;2023-05-07T06:06:40;11.70;99.90
52107;DHT22;38105;52.968;5.974;2023-05-07T06:09:06;11.70;99.90
52107;DHT22;38105;52.968;5.974;2023-05-07T06:11:32;11.80;99.90
52107;DHT22;38105;52.968;5.974;2023-05-07T06:13:58;12.00;99.90
52107;DHT22;38105;52.968;5.974;2023-05-07T06:16:24;12.20;99.90
52107;DHT22;38105;52.968;5.974;2023-05-07T06:18:50;12.20;99.90
52107;DHT22;38105;52.968;5.974;2023-05-07T06:21:16;12.10;99.90
52107;DHT22;38105;52.968;5.974;2023-05-07T06:23:42;12.30;99.90
52107;DHT22;38105;52.968;5.974;2023-05-07T06:26:07;12.40;99.90
52107;DHT22;38105;52.968;5.974;2023-05-07T06:28:33;12.60;99.90
52107;DHT22;38105;52.968;5.974;2023-05-07T06:31:14;12.90;99.90
52107;DHT22;38105;52.968;5.974;2023-05-07T06:33:40;12.90;99.90
52107;DHT22;38105;52.968;5.974;2023-05-07T06:36:06;13.00;99.90
52107;DHT22;38105;52.968;5.974;2023-05-07T06:38:32;13.30;99.90
52107;DHT22;38105;52.968;5.974;2023-05-07T06:40:57;13.30;99.90
52107;DHT22;38105;52.968;5.974;2023-05-07T06:43:23;13.40;99.90
52107;DHT22;38105;52.968;5.974;2023-05-07T06:45:48;14.10;99.90
52107;DHT22;38105;52.968;5.974;2023-05-07T06:48:14;14.70;99.90
52107;DHT22;38105;52.968;5.974;2023-05-07T06:50:41;15.00;99.90
52107;DHT22;38105;52.968;5.974;2023-05-07T06:53:07;15.00;99.90
52107;DHT22;38105;52.968;5.974;2023-05-07T06:55:32;14.80;99.90
52107;DHT22;38105;52.968;5.974;2023-05-07T06:57:58;14.50;99.90
52107;DHT22;38105;52.968;5.974;2023-05-07T07:00:26;14.40;99.90
52107;DHT22;38105;52.968;5.974;2023-05-07T07:02:53;14.30;99.90
52107;DHT22;38105;52.968;5.974;2023-05-07T07:05:19;14.20;99.90
52107;DHT22;38105;52.968;5.974;2023-05-07T07:07:44;13.90;99.90
52107;DHT22;38105;52.968;5.974;2023-05-07T07:10:10;13.90;99.90
52107;DHT22;38105;52.968;5.974;2023-05-07T07:12:35;13.70;99.90
52107;DHT22;38105;52.968;5.974;2023-05-07T07:15:01;13.60;99.90
52107;DHT22;38105;52.968;5.974;2023-05-07T07:17:27;13.60;99.90
52107;DHT22;38105;52.968;5.974;2023-05-07T07:19:53;13.70;99.90
52107;DHT22;38105;52.968;5.974;2023-05-07T07:22:19;13.60;99.90
52107;DHT22;38105;52.968;5.974;2023-05-07T07:24:45;13.70;99.90
52107;DHT22;38105;52.968;5.974;2023-05-07T07:27:10;13.60;99.90
52107;DHT22;38105;52.968;5.974;2023-05-07T07:29:36;13.60;99.90
52107;DHT22;38105;52.968;5.974;2023-05-07T07:32:01;13.80;99.90
52107;DHT22;38105;52.968;5.974;2023-05-07T07:34:27;13.70;99.90
52107;DHT22;38105;52.968;5.974;2023-05-07T07:36:53;13.70;99.90
52107;DHT22;38105;52.968;5.974;2023-05-07T07:39:18;14.10;99.90
52107;DHT22;38105;52.968;5.974;2023-05-07T07:41:44;14.40;99.90
52107;DHT22;38105;52.968;5.974;2023-05-07T07:44:10;14.30;99.90
52107;DHT22;38105;52.968;5.974;2023-05-07T07:46:38;14.30;99.90
52107;DHT22;38105;52.968;5.974;2023-05-07T07:49:03;14.50;99.90
52107;DHT22;38105;52.968;5.974;2023-05-07T07:51:29;14.70;99.90
52107;DHT22;38105;52.968;5.974;2023-05-07T07:53:55;14.80;99.90
52107;DHT22;38105;52.968;5.974;2023-05-07T07:56:23;15.00;99.90
52107;DHT22;38105;52.968;5.974;2023-05-07T07:58:49;15.20;99.90
52107;DHT22;38105;52.968;5.974;2023-05-07T08:01:14;15.50;99.90
52107;DHT22;38105;52.968;5.974;2023-05-07T08:03:41;15.90;99.90
52107;DHT22;38105;52.968;5.974;2023-05-07T08:06:07;16.20;99.90
52107;DHT22;38105;52.968;5.974;2023-05-07T08:08:33;16.50;99.90
52107;DHT22;38105;52.968;5.974;2023-05-07T08:10:58;16.40;99.90
52107;DHT22;38105;52.968;5.974;2023-05-07T08:13:24;16.50;99.90
52107;DHT22;38105;52.968;5.974;2023-05-07T08:15:50;17.00;99.90
52107;DHT22;38105;52.968;5.974;2023-05-07T08:18:15;17.20;99.90
52107;DHT22;38105;52.968;5.974;2023-05-07T08:20:41;17.80;99.90
52107;DHT22;38105;52.968;5.974;2023-05-07T08:23:07;17.60;99.90
52107;DHT22;38105;52.968;5.974;2023-05-07T08:25:34;17.10;99.90
52107;DHT22;38105;52.968;5.974;2023-05-07T08:28:00;17.60;99.90
52107;DHT22;38105;52.968;5.974;2023-05-07T08:30:26;17.70;99.90
52107;DHT22;38105;52.968;5.974;2023-05-07T08:32:52;17.40;99.90
52107;DHT22;38105;52.968;5.974;2023-05-07T08:35:18;17.50;99.90
52107;DHT22;38105;52.968;5.974;2023-05-07T08:37:43;17.90;99.90
52107;DHT22;38105;52.968;5.974;2023-05-07T08:40:09;18.10;99.90
52107;DHT22;38105;52.968;5.974;2023-05-07T08:42:36;18.10;99.90
52107;DHT22;38105;52.968;5.974;2023-05-07T08:45:04;17.80;99.90
52107;DHT22;38105;52.968;5.974;2023-05-07T08:47:38;17.70;99.90
52107;DHT22;38105;52.968;5.974;2023-05-07T08:50:06;17.50;99.90
52107;DHT22;38105;52.968;5.974;2023-05-07T08:52:32;18.30;99.90
52107;DHT22;38105;52.968;5.974;2023-05-07T08:54:58;19.00;99.90
52107;DHT22;38105;52.968;5.974;2023-05-07T08:57:24;19.20;99.90
52107;DHT22;38105;52.968;5.974;2023-05-07T08:59:50;18.90;99.90
52107;DHT22;38105;52.968;5.974;2023-05-07T09:02:15;18.60;99.90
52107;DHT22;38105;52.968;5.974;2023-05-07T09:04:42;18.70;99.90
52107;DHT22;38105;52.968;5.974;2023-05-07T09:07:07;18.80;99.90
52107;DHT22;38105;52.968;5.974;2023-05-07T09:09:33;19.50;99.90
52107;DHT22;38105;52.968;5.974;2023-05-07T09:11:59;20.40;99.90
52107;DHT22;38105;52.968;5.974;2023-05-07T09:14:25;21.10;99.90
52107;DHT22;38105;52.968;5.974;2023-05-07T09:16:54;21.20;99.90
52107;DHT22;38105;52.968;5.974;2023-05-07T09:19:24;21.40;99.90
52107;DHT22;38105;52.968;5.974;2023-05-07T09:21:57;21.70;99.90
52107;DHT22;38105;52.968;5.974;2023-05-07T09:24:22;21.70;99.90
52107;DHT22;38105;52.968;5.974;2023-05-07T09:26:48;21.20;99.90
52107;DHT22;38105;52.968;5.974;2023-05-07T09:29:15;21.60;99.90
52107;DHT22;38105;52.968;5.974;2023-05-07T09:31:42;21.50;99.90
52107;DHT22;38105;52.968;5.974;2023-05-07T09:34:08;21.00;99.90
52107;DHT22;38105;52.968;5.974;2023-05-07T09:36:33;21.10;99.90
52107;DHT22;38105;52.968;5.974;2023-05-07T09:39:00;20.90;99.90
52107;DHT22;38105;52.968;5.974;2023-05-07T09:41:26;20.40;99.90
52107;DHT22;38105;52.968;5.974;2023-05-07T09:43:55;20.20;99.90
52107;DHT22;38105;52.968;5.974;2023-05-07T09:46:30;19.60;99.90
52107;DHT22;38105;52.968;5.974;2023-05-07T09:48:57;19.40;99.90
52107;DHT22;38105;52.968;5.974;2023-05-07T09:51:43;19.00;99.90
52107;DHT22;38105;52.968;5.974;2023-05-07T09:54:10;18.50;99.90
52107;DHT22;38105;52.968;5.974;2023-05-07T09:56:36;18.50;99.90
52107;DHT22;38105;52.968;5.974;2023-05-07T09:59:03;18.70;99.90
52107;DHT22;38105;52.968;5.974;2023-05-07T10:01:31;18.90;99.90
52107;DHT22;38105;52.968;5.974;2023-05-07T10:03:58;19.30;99.90
52107;DHT22;38105;52.968;5.974;2023-05-07T10:06:25;19.30;99.90
52107;DHT22;38105;52.968;5.974;2023-05-07T10:08:53;19.20;99.90
52107;DHT22;38105;52.968;5.974;2023-05-07T10:11:21;19.10;99.90
52107;DHT22;38105;52.968;5.974;2023-05-07T10:13:48;19.00;99.90
52107;DHT22;38105;52.968;5.974;2023-05-07T10:16:14;18.40;99.90
52107;DHT22;38105;52.968;5.974;2023-05-07T10:18:43;18.50;99.90
52107;DHT22;38105;52.968;5.974;2023-05-07T10:21:20;18.80;99.90
52107;DHT22;38105;52.968;5.974;2023-05-07T10:23:49;19.00;99.90
52107;DHT22;38105;52.968;5.974;2023-05-07T10:26:17;19.00;99.90
52107;DHT22;38105;52.968;5.974;2023-05-07T10:28:46;19.10;99.90
52107;DHT22;38105;52.968;5.974;2023-05-07T10:33:59;19.00;99.90
52107;DHT22;38105;52.968;5.974;2023-05-07T10:36:26;18.90;99.90
52107;DHT22;38105;52.968;5.974;2023-05-07T10:38:53;19.00;99.90
52107;DHT22;38105;52.968;5.974;2023-05-07T10:41:19;19.10;99.90
52107;DHT22;38105;52.968;5.974;2023-05-07T10:43:46;19.10;99.90
52107;DHT22;38105;52.968;5.974;2023-05-07T10:51:28;18.90;99.90
52107;DHT22;38105;52.968;5.974;2023-05-07T10:54:18;18.90;99.90
52107;DHT22;38105;52.968;5.974;2023-05-07T10:56:44;19.10;99.90
52107;DHT22;38105;52.968;5.974;2023-05-07T11:01:57;19.30;99.90
52107;DHT22;38105;52.968;5.974;2023-05-07T11:04:24;19.40;99.90
52107;DHT22;38105;52.968;5.974;2023-05-07T11:10:03;19.00;99.90
52107;DHT22;38105;52.968;5.974;2023-05-07T11:15:06;19.20;99.90
52107;DHT22;38105;52.968;5.974;2023-05-07T11:17:32;19.40;99.90
52107;DHT22;38105;52.968;5.974;2023-05-07T11:20:01;19.50;99.90
52107;DHT22;38105;52.968;5.974;2023-05-07T11:25:05;19.30;99.90
52107;DHT22;38105;52.968;5.974;2023-05-07T11:27:31;19.50;99.90
52107;DHT22;38105;52.968;5.974;2023-05-07T11:29:57;19.60;99.90
52107;DHT22;38105;52.968;5.974;2023-05-07T11:32:29;19.80;99.90
52107;DHT22;38105;52.968;5.974;2023-05-07T11:34:55;20.10;99.90
52107;DHT22;38105;52.968;5.974;2023-05-07T11:37:22;20.70;99.90
52107;DHT22;38105;52.968;5.974;2023-05-07T11:39:48;20.60;99.90
52107;DHT22;38105;52.968;5.974;2023-05-07T11:42:32;20.60;99.90
52107;DHT22;38105;52.968;5.974;2023-05-07T11:44:57;20.50;99.90
52107;DHT22;38105;52.968;5.974;2023-05-07T11:47:24;20.50;99.90
52107;DHT22;38105;52.968;5.974;2023-05-07T11:49:51;20.50;99.90
52107;DHT22;38105;52.968;5.974;2023-05-07T11:52:18;20.30;99.90
52107;DHT22;38105;52.968;5.974;2023-05-07T11:57:16;20.40;99.90
52107;DHT22;38105;52.968;5.974;2023-05-07T11:59:42;20.20;99.90
52107;DHT22;38105;52.968;5.974;2023-05-07T12:02:17;20.30;99.90
52107;DHT22;38105;52.968;5.974;2023-05-07T12:04:43;20.50;99.90
52107;DHT22;38105;52.968;5.974;2023-05-07T12:07:13;20.60;99.90
52107;DHT22;38105;52.968;5.974;2023-05-07T12:09:42;20.50;99.90
52107;DHT22;38105;52.968;5.974;2023-05-07T12:12:08;20.30;99.90
52107;DHT22;38105;52.968;5.974;2023-05-07T12:14:41;20.30;99.90
52107;DHT22;38105;52.968;5.974;2023-05-07T12:17:11;20.40;99.90
52107;DHT22;38105;52.968;5.974;2023-05-07T12:19:38;20.40;99.90
52107;DHT22;38105;52.968;5.974;2023-05-07T12:22:05;20.50;99.90
52107;DHT22;38105;52.968;5.974;2023-05-07T12:24:47;20.50;99.90
52107;DHT22;38105;52.968;5.974;2023-05-07T12:27:17;20.60;99.90
52107;DHT22;38105;52.968;5.974;2023-05-07T12:29:49;20.60;99.90
52107;DHT22;38105;52.968;5.974;2023-05-07T12:32:16;20.50;99.90
52107;DHT22;38105;52.968;5.974;2023-05-07T12:34:42;20.30;99.90
52107;DHT22;38105;52.968;5.974;2023-05-07T12:37:08;20.30;99.90
52107;DHT22;38105;52.968;5.974;2023-05-07T12:39:33;20.20;99.90
52107;DHT22;38105;52.968;5.974;2023-05-07T12:41:59;20.30;99.90
52107;DHT22;38105;52.968;5.974;2023-05-07T12:44:29;20.30;99.90
52107;DHT22;38105;52.968;5.974;2023-05-07T12:46:55;20.50;99.90
52107;DHT22;38105;52.968;5.974;2023-05-07T12:49:21;20.50;99.90
52107;DHT22;38105;52.968;5.974;2023-05-07T12:51:47;20.50;99.90
52107;DHT22;38105;52.968;5.974;2023-05-07T12:54:27;20.50;99.90
52107;DHT22;38105;52.968;5.974;2023-05-07T12:57:03;20.50;99.90
52107;DHT22;38105;52.968;5.974;2023-05-07T12:59:40;20.40;99.90
52107;DHT22;38105;52.968;5.974;2023-05-07T13:02:06;20.10;99.90
52107;DHT22;38105;52.968;5.974;2023-05-07T13:04:32;20.20;99.90
52107;DHT22;38105;52.968;5.974;2023-05-07T13:06:59;20.10;99.90
52107;DHT22;38105;52.968;5.974;2023-05-07T13:09:25;20.20;99.90
52107;DHT22;38105;52.968;5.974;2023-05-07T13:11:50;20.30;99.90
52107;DHT22;38105;52.968;5.974;2023-05-07T13:14:16;20.10;99.90
52107;DHT22;38105;52.968;5.974;2023-05-07T13:16:42;20.20;99.90
52107;DHT22;38105;52.968;5.974;2023-05-07T13:19:07;20.50;99.90
52107;DHT22;38105;52.968;5.974;2023-05-07T13:21:33;20.40;99.90
52107;DHT22;38105;52.968;5.974;2023-05-07T13:23:59;20.40;99.90
52107;DHT22;38105;52.968;5.974;2023-05-07T13:26:25;20.60;99.90
52107;DHT22;38105;52.968;5.974;2023-05-07T13:28:52;20.80;99.90
52107;DHT22;38105;52.968;5.974;2023-05-07T13:31:18;20.80;99.90
52107;DHT22;38105;52.968;5.974;2023-05-07T13:33:44;21.00;99.90
52107;DHT22;38105;52.968;5.974;2023-05-07T13:36:09;21.20;99.90
52107;DHT22;38105;52.968;5.974;2023-05-07T13:38:35;21.20;99.90
52107;DHT22;38105;52.968;5.974;2023-05-07T13:41:01;21.20;99.90
52107;DHT22;38105;52.968;5.974;2023-05-07T13:43:27;21.20;99.90
52107;DHT22;38105;52.968;5.974;2023-05-07T13:45:52;21.30;99.90
52107;DHT22;38105;52.968;5.974;2023-05-07T13:48:18;21.50;99.90
52107;DHT22;38105;52.968;5.974;2023-05-07T13:50:43;21.50;99.90
52107;DHT22;38105;52.968;5.974;2023-05-07T13:53:09;21.50;99.90
52107;DHT22;38105;52.968;5.974;2023-05-07T13:55:35;21.50;99.90
52107;DHT22;38105;52.968;5.974;2023-05-07T13:58:02;21.70;99.90
52107;DHT22;38105;52.968;5.974;2023-05-07T14:00:28;21.70;99.90
52107;DHT22;38105;52.968;5.974;2023-05-07T14:02:55;21.90;99.90
52107;DHT22;38105;52.968;5.974;2023-05-07T14:05:22;21.80;99.90
52107;DHT22;38105;52.968;5.974;2023-05-07T14:07:52;21.90;99.90
52107;DHT22;38105;52.968;5.974;2023-05-07T14:10:19;21.80;99.90
52107;DHT22;38105;52.968;5.974;2023-05-07T14:12:46;21.60;99.90
52107;DHT22;38105;52.968;5.974;2023-05-07T14:15:12;21.50;99.90
52107;DHT22;38105;52.968;5.974;2023-05-07T14:17:38;21.30;99.90
52107;DHT22;38105;52.968;5.974;2023-05-07T14:20:04;21.10;99.90
52107;DHT22;38105;52.968;5.974;2023-05-07T14:22:31;21.10;99.90
52107;DHT22;38105;52.968;5.974;2023-05-07T14:24:57;21.00;99.90
52107;DHT22;38105;52.968;5.974;2023-05-07T14:27:22;21.00;99.90
52107;DHT22;38105;52.968;5.974;2023-05-07T14:29:48;21.20;99.90
52107;DHT22;38105;52.968;5.974;2023-05-07T14:32:17;21.20;99.90
52107;DHT22;38105;52.968;5.974;2023-05-07T14:34:44;21.10;99.90
52107;DHT22;38105;52.968;5.974;2023-05-07T14:37:09;21.00;99.90
52107;DHT22;38105;52.968;5.974;2023-05-07T14:39:35;20.90;99.90
52107;DHT22;38105;52.968;5.974;2023-05-07T14:42:01;20.70;99.90
52107;DHT22;38105;52.968;5.974;2023-05-07T14:44:27;20.70;99.90
52107;DHT22;38105;52.968;5.974;2023-05-07T14:46:53;20.70;99.90
52107;DHT22;38105;52.968;5.974;2023-05-07T14:49:19;20.50;99.90
52107;DHT22;38105;52.968;5.974;2023-05-07T14:51:46;20.50;99.90
52107;DHT22;38105;52.968;5.974;2023-05-07T14:54:13;20.40;99.90
52107;DHT22;38105;52.968;5.974;2023-05-07T14:56:39;20.40;99.90
52107;DHT22;38105;52.968;5.974;2023-05-07T14:59:04;20.40;99.90
52107;DHT22;38105;52.968;5.974;2023-05-07T15:01:30;20.30;99.90
52107;DHT22;38105;52.968;5.974;2023-05-07T15:03:56;20.10;99.90
52107;DHT22;38105;52.968;5.974;2023-05-07T15:06:22;20.30;99.90
52107;DHT22;38105;52.968;5.974;2023-05-07T15:08:47;20.20;99.90
52107;DHT22;38105;52.968;5.974;2023-05-07T15:11:14;20.20;99.90
52107;DHT22;38105;52.968;5.974;2023-05-07T15:13:41;20.20;99.90
52107;DHT22;38105;52.968;5.974;2023-05-07T15:16:07;20.10;99.90
52107;DHT22;38105;52.968;5.974;2023-05-07T15:18:32;20.00;99.90
52107;DHT22;38105;52.968;5.974;2023-05-07T15:20:58;20.10;99.90
52107;DHT22;38105;52.968;5.974;2023-05-07T15:23:24;20.10;99.90
52107;DHT22;38105;52.968;5.974;2023-05-07T15:25:50;20.10;99.90
52107;DHT22;38105;52.968;5.974;2023-05-07T15:28:15;20.10;99.90
52107;DHT22;38105;52.968;5.974;2023-05-07T15:30:42;20.10;99.90
52107;DHT22;38105;52.968;5.974;2023-05-07T15:33:08;19.90;99.90
52107;DHT22;38105;52.968;5.974;2023-05-07T15:35:33;19.90;99.90
52107;DHT22;38105;52.968;5.974;2023-05-07T15:37:59;19.80;99.90
52107;DHT22;38105;52.968;5.974;2023-05-07T15:40:24;19.80;99.90
52107;DHT22;38105;52.968;5.974;2023-05-07T15:42:54;19.90;99.90
52107;DHT22;38105;52.968;5.974;2023-05-07T15:45:20;19.90;99.90
52107;DHT22;38105;52.968;5.974;2023-05-07T15:47:45;20.00;99.90